createdAt,value
2023-11-25T00:00:47.786Z,93529.72
2023-11-25T00:03:15.306Z,93527.63
2023-11-25T00:05:42.575Z,93536.31
2023-11-25T00:08:09.371Z,93535.56
2023-11-25T00:10:36.322Z,93531.47
2023-11-25T00:13:03.803Z,93522.41
2023-11-25T00:15:30.511Z,93517.84
2023-11-25T00:17:57.435Z,93530.06
2023-11-25T00:20:24.776Z,93527.13
2023-11-25T00:22:51.789Z,93525.38
2023-11-25T00:25:19.788Z,93524.06
2023-11-25T00:27:50.540Z,93525.94
2023-11-25T00:30:17.181Z,93530.41
2023-11-25T00:32:44.083Z,93527.06
2023-11-25T00:35:15.322Z,93526.34
2023-11-25T00:37:42.405Z,93522.38
2023-11-25T00:40:17.853Z,93521.91
2023-11-25T00:42:44.783Z,93518.13
2023-11-25T00:45:11.913Z,93513.19
2023-11-25T00:47:42.649Z,93521.88
2023-11-25T00:50:12.839Z,93514.66
2023-11-25T00:52:40.151Z,93521.91
2023-11-25T00:55:08.472Z,93508.66
2023-11-25T00:57:35.800Z,93533.88
2023-11-25T01:00:02.397Z,93524.72
2023-11-25T01:02:29.605Z,93531.53
2023-11-25T01:04:56.615Z,93530.22
2023-11-25T01:07:23.806Z,93530.88
2023-11-25T01:09:50.570Z,93535.38
2023-11-25T01:12:17.251Z,93537.63
2023-11-25T01:14:43.847Z,93549.44
2023-11-25T01:17:10.600Z,93557.13
2023-11-25T01:19:37.973Z,93558.66
2023-11-25T01:22:05.472Z,93549.13
2023-11-25T01:24:32.174Z,93558.47
2023-11-25T01:26:59.547Z,93561.72
2023-11-25T01:29:26.248Z,93562.16
2023-11-25T01:31:52.890Z,93579.72
2023-11-25T01:34:19.611Z,93575.34
2023-11-25T01:36:46.200Z,93580.59
2023-11-25T01:39:12.845Z,93593.03
2023-11-25T01:41:39.475Z,93595.00
2023-11-25T01:44:08.616Z,93597.03
2023-11-25T01:46:39.570Z,93593.00
2023-11-25T01:49:11.793Z,93610.41
2023-11-25T01:51:41.734Z,93606.34
2023-11-25T01:54:08.731Z,93621.84
2023-11-25T01:56:35.690Z,93637.63
2023-11-25T01:59:05.635Z,93631.03
2023-11-25T02:01:32.334Z,93647.09
2023-11-25T02:03:58.910Z,93641.63
2023-11-25T02:06:26.706Z,93634.03
2023-11-25T02:08:53.333Z,93633.28
2023-11-25T02:11:19.956Z,93637.34
2023-11-25T02:13:47.261Z,93631.16
2023-11-25T02:16:14.450Z,93632.44
2023-11-25T02:18:41.061Z,93634.47
2023-11-25T02:21:07.820Z,93638.22
2023-11-25T02:23:34.434Z,93665.44
2023-11-25T02:26:03.313Z,93661.41
2023-11-25T02:28:31.362Z,93645.78
2023-11-25T02:30:58.168Z,93649.94
2023-11-25T02:33:25.572Z,93660.78
2023-11-25T02:35:53.581Z,93677.91
2023-11-25T02:38:21.399Z,93667.88
2023-11-25T02:40:50.300Z,93679.63
2023-11-25T02:43:18.224Z,93673.75
2023-11-25T02:45:44.987Z,93692.53
2023-11-25T02:48:16.798Z,93685.09
2023-11-25T02:50:44.166Z,93686.81
2023-11-25T02:53:10.904Z,93681.22
2023-11-25T02:55:37.504Z,93690.97
2023-11-25T02:58:04.121Z,93692.38
2023-11-25T03:00:30.778Z,93697.84
2023-11-25T03:03:09.409Z,93710.75
2023-11-25T03:05:43.495Z,93718.47
2023-11-25T03:08:11.489Z,93738.69
2023-11-25T03:10:40.723Z,93747.00
2023-11-25T03:13:07.459Z,93762.72
2023-11-25T03:15:34.309Z,93763.63
2023-11-25T03:18:00.940Z,93769.75
2023-11-25T03:20:27.598Z,93776.81
2023-11-25T03:22:54.226Z,93783.84
2023-11-25T03:25:24.191Z,93795.88
2023-11-25T03:27:50.845Z,93795.59
2023-11-25T03:30:18.472Z,93789.84
2023-11-25T03:32:45.152Z,93793.28
2023-11-25T03:35:11.846Z,93796.00
2023-11-25T03:37:38.453Z,93794.59
2023-11-25T03:40:08.861Z,93807.38
2023-11-25T03:42:39.383Z,93800.44
2023-11-25T03:45:08.364Z,93802.75
2023-11-25T03:47:35.052Z,93809.72
2023-11-25T03:50:01.725Z,93821.66
2023-11-25T03:52:28.390Z,93807.44
2023-11-25T03:54:58.251Z,93828.78
2023-11-25T03:57:25.486Z,93819.47
2023-11-25T03:59:55.199Z,93831.72
2023-11-25T04:02:22.015Z,93830.66
2023-11-25T04:04:48.729Z,93834.78
2023-11-25T04:07:16.105Z,93841.50
2023-11-25T04:09:43.486Z,93850.16
2023-11-25T04:12:11.763Z,93854.53
2023-11-25T04:14:38.325Z,93859.41
2023-11-25T04:17:05.889Z,93864.44
2023-11-25T04:19:32.805Z,93876.03
2023-11-25T04:22:00.164Z,93881.41
2023-11-25T04:24:28.441Z,93887.38
2023-11-25T04:26:55.589Z,93891.66
2023-11-25T04:29:22.210Z,93894.63
2023-11-25T04:31:51.118Z,93895.41
2023-11-25T04:34:18.085Z,93901.44
2023-11-25T04:36:44.740Z,93898.75
2023-11-25T04:39:11.942Z,93908.81
2023-11-25T04:41:43.016Z,93908.47
2023-11-25T04:44:09.719Z,93902.16
2023-11-25T04:46:36.432Z,93905.81
2023-11-25T04:49:05.299Z,93914.53
2023-11-25T04:51:32.918Z,93907.41
2023-11-25T04:53:59.629Z,93913.97
2023-11-25T04:56:26.759Z,93923.47
2023-11-25T04:58:53.345Z,93921.88
2023-11-25T05:01:20.218Z,93920.00
2023-11-25T05:03:46.937Z,93918.16
2023-11-25T05:06:14.504Z,93917.91
2023-11-25T05:08:46.719Z,93920.22
2023-11-25T05:11:13.500Z,93924.16
2023-11-25T05:13:40.071Z,93923.72
2023-11-25T05:16:07.040Z,93920.13
2023-11-25T05:18:33.588Z,93931.09
2023-11-25T05:21:00.235Z,93942.00
2023-11-25T05:23:27.117Z,93937.91
2023-11-25T05:25:55.499Z,93947.25
2023-11-25T05:28:28.466Z,93948.94
2023-11-25T05:30:58.037Z,93953.69
2023-11-25T05:33:24.598Z,93955.81
2023-11-25T05:35:51.260Z,93960.31
2023-11-25T05:38:19.456Z,93957.16
2023-11-25T05:40:47.697Z,93959.63
2023-11-25T05:43:15.131Z,93965.66
2023-11-25T05:45:45.023Z,93974.56
2023-11-25T05:48:11.786Z,93974.47
2023-11-25T05:50:38.393Z,93974.63
2023-11-25T05:53:05.132Z,93977.06
2023-11-25T05:55:31.942Z,93975.91
2023-11-25T05:58:00.531Z,93971.38
2023-11-25T06:00:27.364Z,93976.84
2023-11-25T06:02:54.391Z,93970.50
2023-11-25T06:05:21.251Z,93976.63
2023-11-25T06:07:47.943Z,93986.47
2023-11-25T06:10:15.728Z,93990.06
2023-11-25T06:12:43.036Z,93992.41
2023-11-25T06:15:12.812Z,93990.66
2023-11-25T06:17:39.740Z,93996.09
2023-11-25T06:20:07.323Z,94004.34
2023-11-25T06:22:33.899Z,94003.28
2023-11-25T06:25:01.742Z,94014.84
2023-11-25T06:27:28.435Z,94013.19
2023-11-25T06:29:55.008Z,94013.78
2023-11-25T06:32:22.384Z,94018.59
2023-11-25T06:34:49.421Z,94026.53
2023-11-25T06:37:16.168Z,94027.13
2023-11-25T06:39:42.910Z,94021.41
2023-11-25T06:42:10.959Z,94020.56
2023-11-25T06:44:37.950Z,94023.16
2023-11-25T06:47:04.881Z,94025.00
2023-11-25T06:49:31.615Z,94027.78
2023-11-25T06:51:59.346Z,94035.59
2023-11-25T06:54:26.189Z,94032.03
2023-11-25T06:56:52.976Z,94031.72
2023-11-25T06:59:20.142Z,94033.91
2023-11-25T07:01:47.232Z,94032.88
2023-11-25T07:04:14.965Z,94037.75
2023-11-25T07:06:41.584Z,94028.44
2023-11-25T07:09:10.602Z,94031.31
2023-11-25T07:11:38.515Z,94031.31
2023-11-25T07:14:06.488Z,94034.22
2023-11-25T07:16:34.534Z,94035.03
2023-11-25T07:19:02.217Z,94037.19
2023-11-25T07:21:29.312Z,94042.22
2023-11-25T07:23:56.755Z,94039.31
2023-11-25T07:26:23.884Z,94039.84
2023-11-25T07:28:50.594Z,94041.16
2023-11-25T07:31:17.364Z,94045.97
2023-11-25T07:33:44.234Z,94032.44
2023-11-25T07:36:10.943Z,94038.91
2023-11-25T07:38:37.523Z,94042.78
2023-11-25T07:41:04.114Z,94042.22
2023-11-25T07:43:32.443Z,94043.47
2023-11-25T07:45:59.126Z,94037.47
2023-11-25T07:48:25.731Z,94042.31
2023-11-25T07:50:52.309Z,94045.44
2023-11-25T07:53:20.409Z,94031.44
2023-11-25T07:55:47.079Z,94043.47
2023-11-25T07:58:15.514Z,94041.47
2023-11-25T08:00:45.273Z,94039.13
2023-11-25T08:03:11.909Z,94045.44
2023-11-25T08:05:38.514Z,94041.31
2023-11-25T08:08:05.329Z,94042.97
2023-11-25T08:10:36.206Z,94052.03
2023-11-25T08:13:03.322Z,94054.66
2023-11-25T08:15:30.427Z,94062.16
2023-11-25T08:17:59.468Z,94050.88
2023-11-25T08:20:26.226Z,94061.25
2023-11-25T08:22:52.862Z,94060.53
2023-11-25T08:25:19.976Z,94061.41
2023-11-25T08:27:51.952Z,94066.81
2023-11-25T08:30:18.643Z,94071.59
2023-11-25T08:32:45.779Z,94072.25
2023-11-25T08:35:13.105Z,94068.03
2023-11-25T08:37:40.775Z,94070.72
2023-11-25T08:40:17.468Z,94067.44
2023-11-25T08:42:45.761Z,94076.41
2023-11-25T08:45:13.025Z,94082.63
2023-11-25T08:47:42.841Z,94079.97
2023-11-25T08:50:12.111Z,94079.41
2023-11-25T08:52:40.465Z,94072.56
2023-11-25T08:55:10.890Z,94074.25
2023-11-25T08:57:38.259Z,94079.75
2023-11-25T09:00:15.814Z,94075.78
2023-11-25T09:02:47.409Z,94082.22
2023-11-25T09:05:16.078Z,94073.72
2023-11-25T09:07:43.508Z,94079.75
2023-11-25T09:10:11.765Z,94082.69
2023-11-25T09:12:39.168Z,94090.16
2023-11-25T09:15:07.870Z,94084.84
2023-11-25T09:17:36.843Z,94085.59
2023-11-25T09:20:05.460Z,94097.91
2023-11-25T09:22:32.000Z,94095.63
2023-11-25T09:24:58.614Z,94096.91
2023-11-25T09:27:25.225Z,94096.69
2023-11-25T09:29:54.995Z,94093.56
2023-11-25T09:32:23.669Z,94088.13
2023-11-25T09:34:52.129Z,94093.34
2023-11-25T09:37:18.987Z,94098.22
2023-11-25T09:39:45.613Z,94105.16
2023-11-25T09:42:19.079Z,94094.78
2023-11-25T09:44:46.397Z,94102.44
2023-11-25T09:47:13.133Z,94106.00
2023-11-25T09:49:39.853Z,94105.19
2023-11-25T09:52:10.460Z,94103.34
2023-11-25T09:54:37.250Z,94113.38
2023-11-25T09:57:05.551Z,94106.13
2023-11-25T09:59:32.835Z,94114.19
2023-11-25T10:01:59.741Z,94115.56
2023-11-25T10:04:30.012Z,94107.44
2023-11-25T10:06:56.674Z,94112.56
2023-11-25T10:09:23.479Z,94118.31
2023-11-25T10:11:50.136Z,94113.28
2023-11-25T10:14:18.920Z,94107.06
2023-11-25T10:16:47.190Z,94103.34
2023-11-25T10:19:24.076Z,94102.91
2023-11-25T10:21:52.841Z,94094.91
2023-11-25T10:24:23.188Z,94103.13
2023-11-25T10:26:52.393Z,94099.91
2023-11-25T10:29:22.147Z,94102.41
2023-11-25T10:31:58.945Z,94101.84
2023-11-25T10:34:27.096Z,94099.22
2023-11-25T10:36:53.891Z,94100.00
2023-11-25T10:39:21.795Z,94103.47
2023-11-25T10:41:52.477Z,94095.94
2023-11-25T10:44:21.476Z,94099.50
2023-11-25T10:46:49.036Z,94100.78
2023-11-25T10:49:16.864Z,94098.25
2023-11-25T10:51:45.251Z,94104.84
2023-11-25T10:54:13.496Z,94098.34
2023-11-25T10:56:40.569Z,94101.09
2023-11-25T10:59:07.307Z,94106.25
2023-11-25T11:01:40.798Z,94104.84
2023-11-25T11:04:37.658Z,94104.53
2023-11-25T11:07:07.916Z,94096.56
2023-11-25T11:09:36.634Z,94097.75
2023-11-25T11:12:08.914Z,94090.00
2023-11-25T11:14:45.956Z,94085.50
2023-11-25T11:17:32.494Z,94092.72
2023-11-25T11:20:00.575Z,94077.16
2023-11-25T11:22:29.492Z,94088.38
2023-11-25T11:25:09.853Z,94081.03
2023-11-25T11:27:49.352Z,94076.44
2023-11-25T11:30:41.745Z,94073.03
2023-11-25T11:33:09.498Z,94069.00
2023-11-25T11:35:40.117Z,94065.81
2023-11-25T11:38:29.737Z,94074.75
2023-11-25T11:41:01.190Z,94070.69
2023-11-25T11:43:30.859Z,94067.69
2023-11-25T11:45:58.545Z,94056.63
2023-11-25T11:48:27.105Z,94048.88
2023-11-25T11:50:56.007Z,94055.66
2023-11-25T11:53:24.801Z,94052.91
2023-11-25T11:55:54.150Z,94056.50
2023-11-25T11:58:21.741Z,94053.03
2023-11-25T12:01:04.556Z,94049.59
2023-11-25T12:03:32.175Z,94045.16
2023-11-25T12:05:59.268Z,94044.00
2023-11-25T12:08:26.514Z,94036.38
2023-11-25T12:10:53.408Z,94033.78
2023-11-25T12:13:31.430Z,94044.56
2023-11-25T12:16:04.547Z,94025.91
2023-11-25T12:18:35.505Z,94022.31
2023-11-25T12:21:03.709Z,94003.03
2023-11-25T12:23:41.185Z,94005.91
2023-11-25T12:26:20.806Z,94009.88
2023-11-25T12:28:47.471Z,93999.94
2023-11-25T12:31:14.120Z,93995.47
2023-11-25T12:33:41.113Z,93989.06
2023-11-25T12:36:08.970Z,93996.50
2023-11-25T12:38:38.318Z,94000.91
2023-11-25T12:41:12.258Z,94004.94
2023-11-25T12:43:39.242Z,94005.13
2023-11-25T12:46:11.992Z,94002.97
2023-11-25T12:48:38.815Z,93995.34
2023-11-25T12:51:08.270Z,93996.97
2023-11-25T12:53:38.631Z,93992.75
2023-11-25T12:56:13.722Z,94006.50
2023-11-25T12:58:44.620Z,93996.84
2023-11-25T13:01:12.064Z,93993.09
2023-11-25T13:03:38.948Z,93990.03
2023-11-25T13:06:10.836Z,93995.03
2023-11-25T13:08:41.038Z,93991.81
2023-11-25T13:11:12.424Z,93985.22
2023-11-25T13:13:39.700Z,93987.19
2023-11-25T13:16:09.715Z,93988.50
2023-11-25T13:18:36.550Z,93983.91
2023-11-25T13:21:06.810Z,93981.53
2023-11-25T13:23:34.640Z,93976.72
2023-11-25T13:26:01.396Z,93963.50
2023-11-25T13:28:28.055Z,93965.34
2023-11-25T13:30:54.683Z,93961.63
2023-11-25T13:33:21.600Z,93965.25
2023-11-25T13:35:48.306Z,93961.81
2023-11-25T13:38:16.746Z,93960.38
2023-11-25T13:40:44.303Z,93946.44
2023-11-25T13:43:18.146Z,93952.78
2023-11-25T13:45:45.331Z,93948.47
2023-11-25T13:48:15.788Z,93947.75
2023-11-25T13:50:42.532Z,93950.63
2023-11-25T13:53:09.327Z,93941.13
2023-11-25T13:55:46.737Z,93949.19
2023-11-25T13:58:13.912Z,93935.66
2023-11-25T14:00:40.572Z,93943.56
2023-11-25T14:03:11.800Z,93952.78
2023-11-25T14:05:43.133Z,93943.91
2023-11-25T14:08:15.972Z,93936.97
2023-11-25T14:10:44.412Z,93927.38
2023-11-25T14:13:12.322Z,93935.13
2023-11-25T14:15:39.126Z,93937.16
2023-11-25T14:18:08.958Z,93935.69
2023-11-25T14:20:36.046Z,93939.16
2023-11-25T14:23:06.103Z,93937.69
2023-11-25T14:25:33.165Z,93938.72
2023-11-25T14:28:00.254Z,93942.44
2023-11-25T14:30:30.024Z,93937.34
2023-11-25T14:32:56.816Z,93947.31
2023-11-25T14:35:24.142Z,93942.16
2023-11-25T14:37:54.634Z,93944.28
2023-11-25T14:40:24.950Z,93931.94
2023-11-25T14:42:51.959Z,93945.59
2023-11-25T14:45:19.047Z,93947.31
2023-11-25T14:50:12.938Z,93939.13
2023-11-25T14:52:39.824Z,93929.09
2023-11-25T14:55:10.178Z,93929.81
2023-11-25T14:57:37.604Z,93923.78
2023-11-25T15:00:09.859Z,93922.59
2023-11-25T15:02:37.102Z,93929.66
2023-11-25T15:05:04.738Z,93930.41
2023-11-25T15:07:31.422Z,93928.38
2023-11-25T15:09:58.106Z,93929.81
2023-11-25T15:12:25.072Z,93923.75
2023-11-25T15:14:54.487Z,93941.03
2023-11-25T15:17:23.016Z,93925.47
2023-11-25T15:19:49.741Z,93925.75
2023-11-25T15:22:17.048Z,93921.72
2023-11-25T15:24:43.685Z,93916.72
2023-11-25T15:27:10.324Z,93914.97
2023-11-25T15:29:37.151Z,93922.72
2023-11-25T15:32:04.045Z,93915.34
2023-11-25T15:34:33.475Z,93911.69
2023-11-25T15:37:00.088Z,93913.13
2023-11-25T15:39:28.400Z,93904.97
2023-11-25T15:41:55.469Z,93908.72
2023-11-25T15:44:22.258Z,93905.94
2023-11-25T15:46:49.318Z,93919.47
2023-11-25T15:49:17.121Z,93914.59
2023-11-25T15:51:45.196Z,93921.19
2023-11-25T15:54:11.890Z,93919.06
2023-11-25T15:56:41.891Z,93928.09
2023-11-25T15:59:08.476Z,93919.91
2023-11-25T16:01:35.535Z,93915.88
2023-11-25T16:04:03.434Z,93926.50
2023-11-25T16:06:30.469Z,93931.41
2023-11-25T16:08:57.956Z,93937.88
2023-11-25T16:11:25.545Z,93924.94
2023-11-25T16:13:52.171Z,93931.25
2023-11-25T16:16:18.808Z,93927.38
2023-11-25T16:18:45.588Z,93952.94
2023-11-25T16:21:12.151Z,93933.41
2023-11-25T16:23:43.722Z,93930.53
2023-11-25T16:26:13.141Z,93932.13
2023-11-25T16:28:40.367Z,93926.22
2023-11-25T16:31:10.697Z,93925.66
2023-11-25T16:33:38.081Z,93928.81
2023-11-25T16:36:04.900Z,93929.09
2023-11-25T16:38:33.727Z,93916.59
2023-11-25T16:41:00.599Z,93931.41
2023-11-25T16:43:27.247Z,93939.56
2023-11-25T16:45:53.923Z,93930.81
2023-11-25T16:48:23.712Z,93933.84
2023-11-25T16:50:53.952Z,93943.75
2023-11-25T16:53:20.732Z,93943.16
2023-11-25T16:55:47.422Z,93942.56
2023-11-25T16:58:14.167Z,93953.50
2023-11-25T17:00:40.802Z,93947.75
2023-11-25T17:03:07.879Z,93949.50
2023-11-25T17:05:34.711Z,93942.00
2023-11-25T17:08:01.424Z,93955.53
2023-11-25T17:10:31.796Z,93955.94
2023-11-25T17:13:02.700Z,93948.31
2023-11-25T17:15:29.251Z,93961.66
2023-11-25T17:17:55.889Z,93957.22
2023-11-25T17:20:22.856Z,93960.53
2023-11-25T17:22:50.183Z,93963.19
2023-11-25T17:25:16.966Z,93957.34
2023-11-25T17:27:43.626Z,93957.94
2023-11-25T17:30:10.488Z,93953.06
2023-11-25T17:32:37.199Z,93970.16
2023-11-25T17:35:05.187Z,93968.44
2023-11-25T17:37:31.848Z,93975.47
2023-11-25T17:39:58.444Z,93967.41
2023-11-25T17:42:25.111Z,93960.38
2023-11-25T17:44:51.762Z,93957.53
2023-11-25T17:47:18.506Z,93958.06
2023-11-25T17:49:46.432Z,93958.34
2023-11-25T17:52:14.042Z,93961.06
2023-11-25T17:54:40.724Z,93954.88
2023-11-25T17:57:09.805Z,93965.81
2023-11-25T17:59:36.641Z,93963.94
2023-11-25T18:02:03.580Z,93963.78
2023-11-25T18:04:30.300Z,93964.91
2023-11-25T18:06:56.955Z,93972.09
2023-11-25T18:09:25.141Z,93963.34
2023-11-25T18:11:51.793Z,93960.31
2023-11-25T18:14:18.593Z,93956.06
2023-11-25T18:16:46.390Z,93969.13
2023-11-25T18:19:13.855Z,93957.47
2023-11-25T18:21:40.528Z,93964.09
2023-11-25T18:24:08.556Z,93969.69
2023-11-25T18:26:35.238Z,93964.41
2023-11-25T18:29:01.942Z,93952.34
2023-11-25T18:31:28.542Z,93968.16
2023-11-25T18:33:55.244Z,93961.94
2023-11-25T18:36:21.847Z,93966.81
2023-11-25T18:38:48.446Z,93964.00
2023-11-25T18:41:15.278Z,93970.75
2023-11-25T18:43:42.112Z,93963.56
2023-11-25T18:46:11.941Z,93961.25
2023-11-25T18:48:39.389Z,93965.13
2023-11-25T18:51:06.918Z,93955.94
2023-11-25T18:53:34.696Z,93946.91
2023-11-25T18:56:01.933Z,93954.66
2023-11-25T18:58:29.301Z,93954.50
2023-11-25T19:00:56.441Z,93953.78
2023-11-25T19:03:23.075Z,93970.75
2023-11-25T19:05:49.676Z,93952.66
2023-11-25T19:08:16.313Z,93955.81
2023-11-25T19:10:43.070Z,93955.25
2023-11-25T19:13:10.311Z,93958.56
2023-11-25T19:15:37.439Z,93963.28
2023-11-25T19:18:04.518Z,93951.19
2023-11-25T19:20:31.252Z,93958.56
2023-11-25T19:22:58.014Z,93960.09
2023-11-25T19:25:24.669Z,93957.53
2023-11-25T19:27:51.256Z,93957.38
2023-11-25T19:30:19.256Z,93950.50
2023-11-25T19:32:46.027Z,93953.22
2023-11-25T19:35:13.346Z,93967.41
2023-11-25T19:37:40.405Z,93971.03
2023-11-25T19:40:11.696Z,93968.44
2023-11-25T19:42:38.307Z,93965.00
2023-11-25T19:45:05.265Z,93951.78
2023-11-25T19:47:32.039Z,93969.16
2023-11-25T19:49:58.786Z,93969.16
2023-11-25T19:52:25.361Z,93957.25
2023-11-25T19:54:52.394Z,93960.66
2023-11-25T19:57:19.315Z,93963.13
2023-11-25T19:59:46.097Z,93976.75
2023-11-25T20:02:12.958Z,93974.63
2023-11-25T20:04:40.338Z,93976.34
2023-11-25T20:07:07.032Z,93977.91
2023-11-25T20:09:33.660Z,93972.75
2023-11-25T20:12:00.562Z,93980.91
2023-11-25T20:14:28.493Z,93983.88
2023-11-25T20:16:55.363Z,93976.63
2023-11-25T20:19:21.964Z,93986.81
2023-11-25T20:21:48.578Z,93987.19
2023-11-25T20:24:15.440Z,93992.97
2023-11-25T20:26:42.041Z,93988.66
2023-11-25T20:29:09.250Z,93982.78
2023-11-25T20:31:35.981Z,93972.31
2023-11-25T20:34:03.577Z,93986.97
2023-11-25T20:36:30.217Z,93988.25
2023-11-25T20:38:56.821Z,93987.38
2023-11-25T20:41:24.962Z,93979.78
2023-11-25T20:43:51.623Z,93980.50
2023-11-25T20:46:21.370Z,93981.91
2023-11-25T20:48:48.116Z,93990.53
2023-11-25T20:51:23.252Z,93991.41
2023-11-25T20:53:51.009Z,93991.84
2023-11-25T20:56:19.386Z,93982.34
2023-11-25T20:58:47.008Z,93981.50
2023-11-25T21:01:15.218Z,93990.41
2023-11-25T21:03:41.911Z,93985.38
2023-11-25T21:06:08.635Z,93984.66
2023-11-25T21:08:35.247Z,93981.91
2023-11-25T21:11:01.975Z,93966.53
2023-11-25T21:13:28.654Z,93971.00
2023-11-25T21:15:55.280Z,93976.75
2023-11-25T21:18:23.227Z,93979.59
2023-11-25T21:20:49.779Z,94004.47
2023-11-25T21:23:16.403Z,93982.09
2023-11-25T21:25:43.071Z,93997.44
2023-11-25T21:28:09.708Z,93982.34
2023-11-25T21:30:36.939Z,93975.03
2023-11-25T21:33:04.159Z,93970.41
2023-11-25T21:35:30.833Z,93981.47
2023-11-25T21:37:58.166Z,93983.22
2023-11-25T21:40:25.623Z,93985.97
2023-11-25T21:42:52.451Z,93981.06
2023-11-25T21:45:19.522Z,93977.91
2023-11-25T21:47:47.120Z,93986.84
2023-11-25T21:50:14.016Z,93981.91
2023-11-25T21:52:40.758Z,93977.91
2023-11-25T21:55:07.986Z,93975.03
2023-11-25T21:57:35.246Z,93982.66
2023-11-25T22:00:03.377Z,93997.72
2023-11-25T22:02:30.413Z,93987.09
2023-11-25T22:04:57.627Z,93997.59
2023-11-25T22:07:25.439Z,93981.72
2023-11-25T22:09:52.032Z,93990.22
2023-11-25T22:12:18.636Z,93980.44
2023-11-25T22:14:45.607Z,93989.97
2023-11-25T22:17:12.345Z,93988.56
2023-11-25T22:19:38.986Z,93982.56
2023-11-25T22:22:07.211Z,93992.91
2023-11-25T22:24:33.821Z,93991.09
2023-11-25T22:27:11.284Z,93986.78
2023-11-25T22:29:38.172Z,93983.06
2023-11-25T22:32:05.560Z,93992.41
2023-11-25T22:34:32.248Z,93991.53
2023-11-25T22:36:59.444Z,93980.81
2023-11-25T22:39:26.087Z,93991.97
2023-11-25T22:41:52.656Z,93994.25
2023-11-25T22:44:19.357Z,93995.00
2023-11-25T22:46:46.109Z,93995.13
2023-11-25T22:49:12.690Z,93988.81
2023-11-25T22:51:39.536Z,93992.69
2023-11-25T22:54:06.211Z,93992.69
2023-11-25T22:56:33.807Z,93998.38
2023-11-25T22:59:00.537Z,93995.63
2023-11-25T23:01:32.332Z,93991.03
2023-11-25T23:03:59.226Z,93986.06
2023-11-25T23:06:25.931Z,93991.44
2023-11-25T23:08:53.937Z,93989.63
2023-11-25T23:11:20.945Z,93991.34
2023-11-25T23:13:47.698Z,93995.91
2023-11-25T23:16:16.504Z,94005.41
2023-11-25T23:18:43.560Z,93996.31
2023-11-25T23:21:10.498Z,93991.94
2023-11-25T23:23:43.384Z,93992.69
2023-11-25T23:26:15.852Z,93998.03
2023-11-25T23:28:42.729Z,94003.75
2023-11-25T23:31:09.419Z,94007.94
2023-11-25T23:33:36.054Z,94011.53
2023-11-25T23:36:02.651Z,94001.31
2023-11-25T23:38:29.304Z,93998.56
2023-11-25T23:40:55.981Z,93997.41
2023-11-25T23:43:22.635Z,94003.69
2023-11-25T23:45:52.290Z,94028.28
2023-11-25T23:48:18.873Z,94007.22
2023-11-25T23:50:45.452Z,94009.16
2023-11-25T23:53:13.278Z,94015.09
2023-11-25T23:55:40.776Z,94017.50
2023-11-25T23:58:07.513Z,94027.16
